Time;durP1;ratioP1;P1;durP2;ratioP2;P2;SDS_P1;SDS_P2;PMS_P1;PMS_P2;Temp;Humidity;BMP_temperature;BMP_pressure;BME280_temperature;BME280_humidity;BME280_pressure;Samples;Min_cycle;Max_cycle;Signal;HPM_P1;HPM_P2
2022/09/26 00:02:16;;;;;;;4.45;3.55;;;;;;;11.82;100.00;97417.59;18488359;32;20124;-64
2022/09/26 00:12:19;;;;;;;4.68;3.12;;;;;;;11.82;100.00;97414.88;18495766;32;20109;-64
2022/09/26 00:22:21;;;;;;;6.60;4.07;;;;;;;11.79;100.00;97408.13;18363812;32;20061;-64
2022/09/26 00:32:23;;;;;;;6.18;3.92;;;;;;;11.78;100.00;97401.09;18362701;32;20058;-64
2022/09/26 00:42:26;;;;;;;7.53;4.12;;;;;;;11.67;100.00;97394.94;18349262;32;20074;-64
2022/09/26 00:52:34;;;;;;;7.45;4.05;;;;;;;11.68;100.00;97390.38;18470392;32;20075;-64
2022/09/26 01:02:38;;;;;;;6.82;4.22;;;;;;;11.61;100.00;97369.03;18498596;32;20049;-64
2022/09/26 01:12:42;;;;;;;7.47;4.90;;;;;;;11.59;100.00;97357.66;18498552;32;20053;-64
2022/09/26 01:23:13;;;;;;;5.27;4.33;;;;;;;11.56;100.00;97347.41;18483897;32;20075;-64
2022/09/26 01:33:30;;;;;;;5.68;4.20;;;;;;;11.44;100.00;97339.66;18497211;32;20079;-63
2022/09/26 01:44:05;;;;;;;6.12;4.45;;;;;;;11.44;100.00;97341.53;18496297;32;20375;-63
2022/09/26 01:54:14;;;;;;;5.25;3.97;;;;;;;11.39;100.00;97326.16;18482065;32;20075;-63
2022/09/26 02:04:24;;;;;;;5.10;4.10;;;;;;;11.36;100.00;97313.19;18481616;32;20105;-64
2022/09/26 02:14:35;;;;;;;5.45;4.07;;;;;;;11.32;100.00;97309.44;18495920;32;20049;-63
2022/09/26 02:24:37;;;;;;;5.65;3.75;;;;;;;11.28;100.00;97300.28;18495528;32;20112;-63
2022/09/26 02:34:41;;;;;;;8.73;5.37;;;;;;;11.23;100.00;97292.19;18494978;32;20053;-63
2022/09/26 02:44:49;;;;;;;6.43;4.40;;;;;;;11.26;100.00;97284.31;18494852;32;20054;-63
2022/09/26 02:55:03;;;;;;;5.47;4.37;;;;;;;11.24;100.00;97277.59;18501087;32;20559;-63
2022/09/26 03:05:11;;;;;;;6.63;4.40;;;;;;;11.13;100.00;97277.66;18506206;32;20049;-63
2022/09/26 03:15:15;;;;;;;5.80;4.60;;;;;;;11.01;100.00;97282.63;18505785;32;20094;-64
2022/09/26 03:25:22;;;;;;;9.13;4.90;;;;;;;10.85;100.00;97277.34;18505140;32;20112;-64
2022/09/26 03:35:24;;;;;;;6.85;4.70;;;;;;;10.73;100.00;97263.34;18303277;32;20066;-63
2022/09/26 03:45:27;;;;;;;6.60;4.57;;;;;;;10.64;100.00;97265.03;18302130;32;20105;-63
2022/09/26 03:55:30;;;;;;;6.15;4.43;;;;;;;10.63;100.00;97258.81;18175696;32;20168;-64
2022/09/26 04:05:32;;;;;;;7.47;4.62;;;;;;;10.64;100.00;97238.00;18202503;32;20131;-63
2022/09/26 04:15:34;;;;;;;6.10;4.32;;;;;;;10.66;100.00;97231.22;18364061;32;20065;-64
2022/09/26 04:25:37;;;;;;;7.28;4.53;;;;;;;10.67;100.00;97226.59;18472118;32;20134;-64
2022/09/26 04:35:39;;;;;;;7.17;4.57;;;;;;;10.69;100.00;97216.34;18494063;32;20097;-64
2022/09/26 04:45:42;;;;;;;6.60;4.57;;;;;;;10.68;100.00;97196.56;18500231;32;20057;-64
2022/09/26 04:55:46;;;;;;;8.40;5.30;;;;;;;10.70;100.00;97182.78;18486078;32;20057;-64
2022/09/26 05:05:51;;;;;;;8.30;5.05;;;;;;;10.66;100.00;97185.25;18484339;32;20079;-63
2022/09/26 05:15:54;;;;;;;6.60;4.33;;;;;;;10.59;100.00;97179.38;18485067;32;20079;-64
2022/09/26 05:36:18;;;;;;;6.10;4.77;;;;;;;10.51;100.00;97163.72;18485374;32;20396;-64
2022/09/26 05:46:21;;;;;;;7.33;4.90;;;;;;;10.50;100.00;97173.75;18482609;32;20441;-64
2022/09/26 05:56:24;;;;;;;5.90;4.70;;;;;;;10.55;100.00;97174.78;18496296;32;20079;-63
2022/09/26 06:06:28;;;;;;;7.43;4.53;;;;;;;10.63;100.00;97161.50;18495527;32;20105;-63
2022/09/26 06:16:31;;;;;;;6.20;4.20;;;;;;;10.65;100.00;97161.22;18481589;32;20064;-63
2022/09/26 06:26:34;;;;;;;7.53;4.73;;;;;;;10.61;100.00;97157.47;18491633;32;20068;-63
2022/09/26 06:36:38;;;;;;;7.13;3.97;;;;;;;10.52;100.00;97154.53;18481993;32;20060;-63
2022/09/26 06:46:41;;;;;;;5.40;4.33;;;;;;;10.39;100.00;97161.41;18507609;32;20110;-63
2022/09/26 06:56:43;;;;;;;5.63;4.13;;;;;;;10.51;100.00;97147.50;18507030;32;20365;-63
2022/09/26 07:06:49;;;;;;;8.40;5.47;;;;;;;10.83;100.00;97144.28;18492619;32;20049;-63
2022/09/26 07:16:52;;;;;;;8.48;6.10;;;;;;;11.07;100.00;97127.25;18505595;32;20061;-63
2022/09/26 07:26:55;;;;;;;7.68;4.97;;;;;;;11.50;100.00;97124.62;18465450;32;20052;-63
2022/09/26 07:36:59;;;;;;;7.73;4.30;;;;;;;12.07;100.00;97123.12;18503444;32;20065;-64
2022/09/26 07:57:25;;;;;;;7.00;4.22;;;;;;;12.65;100.00;97125.47;18503615;32;20089;-63
2022/09/26 08:07:30;;;;;;;5.35;3.87;;;;;;;12.62;100.00;97125.25;18436851;32;20061;-64
2022/09/26 08:17:33;;;;;;;;;;;;;;;12.80;100.00;97132.56;18437328;32;20380;-64
2022/09/26 08:27:42;;;;;;;7.28;4.68;;;;;;;12.91;100.00;97135.87;18437125;32;20327;-64
2022/09/26 08:37:48;;;;;;;5.65;3.70;;;;;;;13.31;100.00;97116.44;18436241;32;20445;-63
2022/09/26 08:48:05;;;;;;;5.78;4.40;;;;;;;13.89;100.00;97112.28;18435424;32;20404;-64
2022/09/26 08:58:15;;;;;;;7.43;5.05;;;;;;;13.66;100.00;97116.84;18434864;32;20057;-64
2022/09/26 09:09:02;;;;;;;6.62;4.47;;;;;;;13.95;90.60;97105.63;18489299;32;20463;-64
2022/09/26 09:19:21;;;;;;;4.93;3.47;;;;;;;13.76;93.62;97096.81;18233195;32;20070;-63
2022/09/26 09:29:46;;;;;;;4.45;3.20;;;;;;;13.92;100.00;97091.84;18221485;32;20517;-64
2022/09/26 09:39:51;;;;;;;3.85;2.70;;;;;;;14.48;99.73;97084.28;18232275;32;20534;-64
2022/09/26 09:49:56;;;;;;;2.57;1.90;;;;;;;14.77;98.25;97072.97;18338148;32;20056;-64
2022/09/26 10:00:14;;;;;;;1.75;1.23;;;;;;;15.44;90.09;97056.75;18481296;32;20057;-65
2022/09/26 10:10:23;;;;;;;2.85;1.33;;;;;;;15.91;80.10;97052.34;18481665;32;20372;-64
2022/09/26 10:20:40;;;;;;;1.85;1.20;;;;;;;15.50;78.23;97048.09;18481193;32;20093;-65
2022/09/26 10:30:48;;;;;;;2.33;1.52;;;;;;;15.35;83.29;97034.94;18495209;32;20053;-64
2022/09/26 10:40:55;;;;;;;3.58;1.60;;;;;;;15.13;80.14;97036.63;18494781;32;20384;-64
2022/09/26 10:50:59;;;;;;;1.98;1.20;;;;;;;15.13;83.76;97014.84;18480927;32;20163;-65
2022/09/26 11:01:03;;;;;;;1.67;1.20;;;;;;;15.38;86.67;97020.69;18480183;32;20429;-64
2022/09/26 11:11:15;;;;;;;2.10;1.12;;;;;;;15.82;82.62;97007.94;18494858;32;20471;-64
2022/09/26 11:21:34;;;;;;;1.43;1.00;;;;;;;15.87;76.93;97005.03;18505489;32;20046;-64
2022/09/26 11:31:42;;;;;;;2.17;1.05;;;;;;;16.03;78.09;96996.38;18505041;32;20075;-64
2022/09/26 11:42:26;;;;;;;4.40;1.00;;;;;;;16.29;82.55;96979.19;18504608;32;20086;-64
2022/09/26 11:53:16;;;;;;;2.40;0.90;;;;;;;16.44;70.81;96970.47;18301884;32;20137;-64
2022/09/26 12:03:38;;;;;;;0.80;0.50;;;;;;;16.62;75.66;96956.78;18023898;32;20073;-64
2022/09/26 12:14:26;;;;;;;1.17;0.65;;;;;;;16.76;70.82;96939.03;17989402;32;20071;-64
2022/09/26 12:25:04;;;;;;;1.30;0.40;;;;;;;16.71;70.99;96928.31;17962332;32;20133;-64
2022/09/26 12:35:28;;;;;;;0.93;0.60;;;;;;;16.58;73.68;96910.22;18167554;32;20066;-64
2022/09/26 12:46:09;;;;;;;0.62;0.30;;;;;;;16.47;74.72;96887.94;18362524;32;20110;-64
2022/09/26 12:56:29;;;;;;;3.30;0.60;;;;;;;16.63;76.73;96876.50;18430591;32;20101;-64
2022/09/26 13:06:51;;;;;;;1.35;0.47;;;;;;;16.66;71.94;96862.19;18297481;32;20235;-64
2022/09/26 13:17:20;;;;;;;1.85;0.57;;;;;;;16.65;66.23;96844.19;18296864;32;20461;-64
2022/09/26 13:27:38;;;;;;;0.73;0.40;;;;;;;16.54;72.46;96830.94;18296996;32;20077;-64
2022/09/26 13:38:13;;;;;;;1.10;0.50;;;;;;;16.77;75.07;96817.00;18423907;32;20049;-64
2022/09/26 13:48:59;;;;;;;0.77;0.50;;;;;;;16.83;74.35;96807.50;18431955;32;20050;-64
2022/09/26 13:59:26;;;;;;;1.00;0.30;;;;;;;16.57;70.32;96785.84;18281969;32;20062;-64
2022/09/26 14:09:51;;;;;;;4.85;0.70;;;;;;;16.36;75.29;96772.13;18294609;32;20131;-64
2022/09/26 14:19:57;;;;;;;0.82;0.40;;;;;;;16.12;75.20;96772.78;18281566;32;20115;-64
2022/09/26 14:30:00;;;;;;;0.80;0.50;;;;;;;15.81;79.24;96749.31;18350731;32;20065;-63
2022/09/26 14:40:18;;;;;;;0.45;0.32;;;;;;;15.93;81.77;96739.31;18430134;32;20080;-64
2022/09/26 14:50:43;;;;;;;1.33;0.37;;;;;;;15.90;82.03;96734.50;18437053;32;20068;-64
2022/09/26 15:00:48;;;;;;;1.52;0.68;;;;;;;15.59;82.53;96713.78;18368804;32;20542;-64
2022/09/26 15:10:57;;;;;;;2.12;0.50;;;;;;;15.38;84.07;96702.00;18368580;32;20077;-63
2022/09/26 15:21:11;;;;;;;0.82;0.37;;;;;;;15.33;83.00;96702.16;18178423;32;20078;-64
2022/09/26 15:31:19;;;;;;;2.20;0.80;;;;;;;15.26;84.11;96691.75;18294090;32;20118;-64
2022/09/26 15:51:44;;;;;;;1.05;0.60;;;;;;;14.77;83.03;96661.28;18418197;32;20049;-64
2022/09/26 16:01:50;;;;;;;0.70;0.23;;;;;;;14.45;86.40;96668.78;18454576;32;20078;-64
2022/09/26 16:11:57;;;;;;;0.65;0.30;;;;;;;14.19;84.61;96664.91;18503266;32;20057;-64
2022/09/26 16:22:26;;;;;;;0.70;0.30;;;;;;;13.96;87.84;96666.16;18428043;32;20064;-64
2022/09/26 16:32:30;;;;;;;3.58;0.60;;;;;;;13.67;88.62;96662.09;18223289;32;20084;-64
2022/09/26 16:42:33;;;;;;;4.40;0.50;;;;;;;13.39;87.71;96657.69;18235177;32;20121;-64
2022/09/26 16:52:36;;;;;;;0.90;0.35;;;;;;;13.21;89.09;96656.78;18211811;32;20117;-64
2022/09/26 17:02:39;;;;;;;2.55;0.40;;;;;;;13.04;87.01;96656.69;18246482;32;20087;-64
2022/09/26 17:12:49;;;;;;;0.60;0.20;;;;;;;12.88;89.70;96648.94;18360770;32;20091;-64
2022/09/26 17:22:53;;;;;;;4.05;0.50;;;;;;;12.72;91.02;96655.84;18316869;32;20642;-64
2022/09/26 17:32:57;;;;;;;0.88;0.57;;;;;;;12.56;91.05;96649.19;18410982;32;20084;-64
2022/09/26 17:43:01;;;;;;;2.12;0.70;;;;;;;12.45;90.73;96637.78;18410445;32;20070;-64
2022/09/26 17:53:08;;;;;;;2.25;0.75;;;;;;;12.37;94.12;96625.75;18468696;32;20088;-64
2022/09/26 18:03:22;;;;;;;3.35;0.70;;;;;;;12.27;95.25;96598.91;18495840;32;20045;-64
2022/09/26 18:13:32;;;;;;;2.00;1.10;;;;;;;12.18;96.15;96585.28;18496169;32;20456;-64
2022/09/26 18:23:54;;;;;;;1.65;1.05;;;;;;;12.13;96.80;96577.28;18503055;32;20048;-64
2022/09/26 18:33:57;;;;;;;2.17;1.05;;;;;;;12.09;95.50;96576.31;18516922;32;20068;-64
2022/09/26 18:44:01;;;;;;;2.67;0.73;;;;;;;12.07;93.99;96573.09;18516593;32;20072;-64
2022/09/26 18:54:11;;;;;;;1.10;0.70;;;;;;;12.11;96.85;96580.28;18516241;32;20058;-64
2022/09/26 19:04:21;;;;;;;3.97;0.80;;;;;;;12.08;97.58;96591.75;18489515;32;20087;-64
2022/09/26 19:14:27;;;;;;;1.37;0.65;;;;;;;11.99;100.00;96591.66;18509042;32;20057;-63
2022/09/26 19:24:32;;;;;;;2.22;0.75;;;;;;;11.85;100.00;96594.41;18515410;32;20115;-63
2022/09/26 19:34:36;;;;;;;1.08;0.52;;;;;;;11.74;100.00;96600.31;18497971;32;20131;-63
2022/09/26 19:44:39;;;;;;;1.40;0.93;;;;;;;11.66;100.00;96602.66;18504316;32;20060;-63
2022/09/26 19:54:44;;;;;;;0.80;0.55;;;;;;;11.52;100.00;96597.25;18503907;32;20060;-63
2022/09/26 20:04:46;;;;;;;;;;;;;;;11.46;100.00;96590.34;18365592;32;20092;-63
2022/09/26 20:14:49;;;;;;;1.85;0.73;;;;;;;11.47;100.00;96569.47;18365049;32;19960;-63
2022/09/26 20:24:54;;;;;;;1.87;0.90;;;;;;;11.44;100.00;96562.78;18363927;32;20081;-63
2022/09/26 20:34:59;;;;;;;;;;;;;;;11.41;100.00;96539.00;18422066;32;20438;-63
2022/09/26 20:45:02;;;;;;;1.10;0.60;;;;;;;11.29;100.00;96522.47;18435045;32;19994;-64
2022/09/26 20:55:06;;;;;;;4.50;0.75;;;;;;;11.18;100.00;96495.66;18434513;32;20494;-64
2022/09/26 21:05:16;;;;;;;1.48;0.50;;;;;;;11.05;100.00;96480.25;18474510;32;20056;-64
2022/09/26 21:15:20;;;;;;;1.83;0.50;;;;;;;10.92;100.00;96456.69;18499063;32;20056;-63
2022/09/26 21:25:25;;;;;;;0.47;0.22;;;;;;;10.85;100.00;96441.69;18483895;32;20065;-63
2022/09/26 21:35:29;;;;;;;0.88;0.30;;;;;;;10.63;100.00;96420.78;18497698;32;20089;-63
2022/09/26 21:45:32;;;;;;;1.30;0.57;;;;;;;10.43;100.00;96394.97;18497275;32;20083;-64
2022/09/26 21:55:40;;;;;;;1.90;0.30;;;;;;;10.42;100.00;96382.53;18489603;32;20057;-64
2022/09/26 22:05:43;;;;;;;1.20;0.40;;;;;;;10.36;100.00;96377.53;18496364;32;20068;-64
2022/09/26 22:15:46;;;;;;;4.77;0.40;;;;;;;10.32;100.00;96371.91;18495700;32;20460;-63
2022/09/26 22:25:49;;;;;;;1.47;0.40;;;;;;;10.26;100.00;96362.28;18495414;32;20153;-63
2022/09/26 22:35:52;;;;;;;1.43;0.50;;;;;;;10.17;100.00;96325.19;18481482;32;20459;-64
2022/09/26 22:46:10;;;;;;;1.40;0.40;;;;;;;10.13;100.00;96280.97;18495010;32;20364;-63
2022/09/26 22:56:13;;;;;;;1.47;0.40;;;;;;;10.07;100.00;96263.28;18494575;32;20101;-63
2022/09/26 23:06:16;;;;;;;0.50;0.30;;;;;;;10.01;100.00;96261.78;18494102;32;20394;-63
2022/09/26 23:16:21;;;;;;;3.30;0.40;;;;;;;9.97;100.00;96241.88;18506156;32;20112;-64
2022/09/26 23:26:25;;;;;;;;;;;;;;;9.97;100.00;96239.19;18491698;32;20075;-63
2022/09/26 23:36:27;;;;;;;1.03;0.30;;;;;;;10.00;100.00;96246.66;18505258;32;19936;-63
2022/09/26 23:46:29;;;;;;;3.00;0.27;;;;;;;9.97;100.00;96241.88;18470695;32;20115;-63
2022/09/26 23:56:32;;;;;;;1.20;0.10;;;;;;;10.04;100.00;96246.88;18503636;32;20071;-63
